Time;durP1;ratioP1;P1;durP2;ratioP2;P2;SDS_P1;SDS_P2;PMS_P1;PMS_P2;Temp;Humidity;BMP_temperature;BMP_pressure;BME280_temperature;BME280_humidity;BME280_pressure;Samples;Min_cycle;Max_cycle;Signal;HPM_P1;HPM_P2
2022/01/10 00:00:07;;;;;;;;;;;6.60;99.90;;;;;;5011280;28;20008;-70
2022/01/10 00:02:32;;;;;;;;;;;6.60;99.90;;;;;;5010828;28;19920;-71
2022/01/10 00:04:58;;;;;;;;;;;6.60;99.90;;;;;;5011679;28;19910;-71
2022/01/10 00:07:23;;;;;;;;;;;6.60;99.90;;;;;;5009442;28;20334;-71
2022/01/10 00:09:49;;;;;;;;;;;6.50;99.90;;;;;;5012215;28;19915;-71
2022/01/10 00:12:14;;;;;;;;;;;6.50;99.90;;;;;;5010457;28;19968;-71
2022/01/10 00:14:40;;;;;;;;;;;6.50;99.90;;;;;;5011228;28;19913;-70
2022/01/10 00:17:05;;;;;;;;;;;6.40;99.90;;;;;;5010799;28;20351;-70
2022/01/10 00:19:31;;;;;;;;;;;6.40;99.90;;;;;;5007495;28;19980;-71
2022/01/10 00:21:56;;;;;;;;;;;6.40;99.90;;;;;;5010333;28;20330;-70
2022/01/10 00:24:22;;;;;;;;;;;6.30;99.90;;;;;;5010099;28;19913;-70
2022/01/10 00:26:48;;;;;;;;;;;6.40;99.90;;;;;;5011118;28;19952;-70
2022/01/10 00:29:14;;;;;;;;;;;6.40;99.90;;;;;;5011717;28;20353;-70
2022/01/10 00:31:40;;;;;;;;;;;6.30;99.90;;;;;;5007693;28;19924;-69
2022/01/10 00:34:06;;;;;;;;;;;6.30;99.90;;;;;;5020049;28;19909;-69
2022/01/10 00:36:32;;;;;;;;;;;6.30;99.90;;;;;;5011180;28;19909;-70
2022/01/10 00:38:57;;;;;;;;;;;6.30;99.90;;;;;;5009716;28;19992;-71
2022/01/10 00:41:23;;;;;;;;;;;6.20;99.90;;;;;;5004972;28;19996;-70
2022/01/10 00:43:50;;;;;;;;;;;6.10;99.90;;;;;;5008537;28;20060;-71
2022/01/10 00:46:16;;;;;;;;;;;6.20;99.90;;;;;;5011844;28;19917;-71
2022/01/10 00:48:42;;;;;;;;;;;6.10;99.90;;;;;;5009220;28;19925;-71
2022/01/10 00:51:07;;;;;;;;;;;6.10;99.90;;;;;;5009046;28;20390;-70
2022/01/10 00:53:33;;;;;;;;;;;6.20;99.90;;;;;;5010824;28;20270;-70
2022/01/10 00:55:59;;;;;;;;;;;6.20;99.90;;;;;;5009417;28;19916;-69
2022/01/10 00:58:24;;;;;;;;;;;6.20;99.90;;;;;;5010078;28;19921;-70
2022/01/10 01:00:52;;;;;;;;;;;6.20;99.90;;;;;;5005829;28;19909;-71
2022/01/10 01:03:18;;;;;;;;;;;6.20;99.90;;;;;;5009733;28;19909;-70
2022/01/10 01:05:45;;;;;;;;;;;6.10;99.90;;;;;;5011558;28;20008;-70
2022/01/10 01:08:11;;;;;;;;;;;6.10;99.90;;;;;;5009190;28;19909;-71
2022/01/10 01:13:20;;;;;;;;;;;6.00;99.90;;;;;;5010792;28;19909;-70
2022/01/10 01:16:07;;;;;;;;;;;6.00;99.90;;;;;;5005860;28;19921;-71
2022/01/10 01:24:08;;;;;;;;;;;6.10;99.90;;;;;;5011461;28;20047;-71
2022/01/10 01:26:41;;;;;;;;;;;6.10;99.90;;;;;;5010072;28;19923;-72
2022/01/10 01:29:08;;;;;;;;;;;6.10;99.90;;;;;;5010489;28;19909;-71
2022/01/10 01:31:34;;;;;;;;;;;6.00;99.90;;;;;;4999988;28;19953;-71
2022/01/10 01:33:59;;;;;;;;;;;5.90;99.90;;;;;;5010543;28;20398;-70
2022/01/10 01:36:26;;;;;;;;;;;6.00;99.90;;;;;;5012693;28;20359;-70
2022/01/10 01:38:53;;;;;;;;;;;6.00;99.90;;;;;;5007151;28;20274;-70
2022/01/10 01:43:48;;;;;;;;;;;5.90;99.90;;;;;;5010271;28;19909;-71
2022/01/10 01:46:14;;;;;;;;;;;5.90;99.90;;;;;;5008347;28;19913;-71
2022/01/10 01:48:40;;;;;;;;;;;5.80;99.90;;;;;;5009927;28;19910;-70
2022/01/10 01:51:05;;;;;;;;;;;5.80;99.90;;;;;;5006093;28;20016;-70
2022/01/10 01:53:31;;;;;;;;;;;5.80;99.90;;;;;;5003949;28;19963;-70
2022/01/10 01:55:57;;;;;;;;;;;5.80;99.90;;;;;;5010643;28;19935;-70
2022/01/10 01:58:23;;;;;;;;;;;5.80;99.90;;;;;;5008650;28;19972;-70
2022/01/10 02:00:49;;;;;;;;;;;5.80;99.90;;;;;;5010689;28;20359;-70
2022/01/10 02:03:14;;;;;;;;;;;5.80;99.90;;;;;;5003455;28;19924;-69
2022/01/10 02:05:40;;;;;;;;;;;5.70;99.90;;;;;;5010740;28;19956;-70
2022/01/10 02:08:07;;;;;;;;;;;5.70;99.90;;;;;;5013157;28;20231;-70
2022/01/10 02:10:33;;;;;;;;;;;5.70;99.90;;;;;;5007361;28;19913;-72
2022/01/10 02:12:59;;;;;;;;;;;5.70;99.90;;;;;;5008342;28;20272;-70
2022/01/10 02:15:26;;;;;;;;;;;5.70;99.90;;;;;;5008121;28;19976;-69
2022/01/10 02:17:55;;;;;;;;;;;5.70;99.90;;;;;;5009330;28;19909;-69
2022/01/10 02:20:21;;;;;;;;;;;5.70;99.90;;;;;;5008866;28;19906;-70
2022/01/10 02:22:46;;;;;;;;;;;5.70;99.90;;;;;;5007763;28;19910;-70
2022/01/10 02:25:12;;;;;;;;;;;5.60;99.90;;;;;;5009256;28;19967;-70
2022/01/10 02:27:39;;;;;;;;;;;5.70;99.90;;;;;;5005142;28;20319;-70
2022/01/10 02:30:05;;;;;;;;;;;5.70;99.90;;;;;;5010205;28;20330;-70
2022/01/10 02:32:34;;;;;;;;;;;5.70;99.90;;;;;;5010321;28;19913;-70
2022/01/10 02:34:59;;;;;;;;;;;5.70;99.90;;;;;;5010756;28;19905;-70
2022/01/10 02:37:35;;;;;;;;;;;5.70;99.90;;;;;;5004885;28;20354;-70
2022/01/10 02:40:03;;;;;;;;;;;5.70;99.90;;;;;;5007572;28;20278;-69
2022/01/10 02:42:29;;;;;;;;;;;5.70;99.90;;;;;;5008001;28;20233;-71
2022/01/10 02:44:54;;;;;;;;;;;5.70;99.90;;;;;;5012543;28;19920;-70
2022/01/10 02:47:20;;;;;;;;;;;5.70;99.90;;;;;;5010255;28;19910;-71
2022/01/10 02:49:46;;;;;;;;;;;5.70;99.90;;;;;;5007905;28;19924;-70
2022/01/10 02:52:11;;;;;;;;;;;5.70;99.90;;;;;;5008205;28;19925;-69
2022/01/10 02:54:37;;;;;;;;;;;5.80;99.90;;;;;;5011158;28;19999;-70
2022/01/10 02:57:02;;;;;;;;;;;5.80;99.90;;;;;;5010002;28;19912;-69
2022/01/10 02:59:28;;;;;;;;;;;5.80;99.90;;;;;;5009081;28;20386;-70
2022/01/10 03:01:55;;;;;;;;;;;5.80;99.90;;;;;;5009614;28;19913;-71
2022/01/10 03:04:20;;;;;;;;;;;5.80;99.90;;;;;;5003651;28;19921;-70
2022/01/10 03:06:46;;;;;;;;;;;5.80;99.90;;;;;;5011824;28;19909;-70
2022/01/10 03:09:12;;;;;;;;;;;5.90;99.90;;;;;;5011298;28;19917;-70
2022/01/10 03:11:42;;;;;;;;;;;5.90;99.90;;;;;;5007955;28;19964;-70
2022/01/10 03:14:07;;;;;;;;;;;5.80;99.90;;;;;;5018174;28;19920;-70
2022/01/10 03:16:33;;;;;;;;;;;5.90;99.90;;;;;;5012140;28;20316;-71
2022/01/10 03:18:59;;;;;;;;;;;5.90;99.90;;;;;;5006836;28;20000;-70
2022/01/10 03:21:24;;;;;;;;;;;5.90;99.90;;;;;;5009398;28;19952;-70
2022/01/10 03:23:51;;;;;;;;;;;5.90;99.90;;;;;;5012342;28;20415;-71
2022/01/10 03:26:17;;;;;;;;;;;6.00;99.90;;;;;;5012914;28;20024;-70
2022/01/10 03:28:42;;;;;;;;;;;6.00;99.90;;;;;;5014411;28;19909;-70
2022/01/10 03:31:08;;;;;;;;;;;5.90;99.90;;;;;;5013049;28;19945;-71
2022/01/10 03:33:34;;;;;;;;;;;5.90;99.90;;;;;;5012803;28;20016;-70
2022/01/10 03:35:59;;;;;;;;;;;5.90;99.90;;;;;;5012926;28;19909;-70
2022/01/10 03:38:25;;;;;;;;;;;5.80;99.90;;;;;;5010479;28;19916;-70
2022/01/10 03:40:50;;;;;;;;;;;5.90;99.90;;;;;;5008292;28;19940;-70
2022/01/10 03:43:16;;;;;;;;;;;5.90;99.90;;;;;;5009244;28;19909;-70
2022/01/10 03:45:43;;;;;;;;;;;5.80;99.90;;;;;;5012791;28;19921;-69
2022/01/10 03:48:09;;;;;;;;;;;5.80;99.90;;;;;;5011258;28;19913;-70
2022/01/10 03:50:34;;;;;;;;;;;5.80;99.90;;;;;;5012805;28;19968;-70
2022/01/10 03:53:00;;;;;;;;;;;5.90;99.90;;;;;;5012061;28;19952;-70
2022/01/10 03:55:25;;;;;;;;;;;5.90;99.90;;;;;;5012847;28;19921;-70
2022/01/10 03:57:51;;;;;;;;;;;5.90;99.90;;;;;;5011968;28;19910;-70
2022/01/10 04:00:17;;;;;;;;;;;5.90;99.90;;;;;;5011651;28;19949;-69
2022/01/10 04:02:48;;;;;;;;;;;5.90;99.90;;;;;;5010453;28;20390;-69
2022/01/10 04:05:13;;;;;;;;;;;5.90;99.90;;;;;;5012013;28;20008;-70
2022/01/10 04:07:39;;;;;;;;;;;5.90;99.90;;;;;;5013899;28;19959;-71
2022/01/10 04:10:05;;;;;;;;;;;5.90;99.90;;;;;;5010504;28;19917;-70
2022/01/10 04:12:31;;;;;;;;;;;5.90;99.90;;;;;;5005988;28;19909;-70
2022/01/10 04:14:56;;;;;;;;;;;5.90;99.90;;;;;;5012953;28;19996;-70
2022/01/10 04:17:22;;;;;;;;;;;5.90;99.90;;;;;;5011277;28;20285;-71
2022/01/10 04:19:47;;;;;;;;;;;6.00;99.90;;;;;;5009325;28;19941;-70
2022/01/10 04:22:13;;;;;;;;;;;6.00;99.90;;;;;;5010988;28;20371;-69
2022/01/10 04:24:39;;;;;;;;;;;6.00;99.90;;;;;;5011399;28;20347;-69
2022/01/10 04:27:05;;;;;;;;;;;5.90;99.90;;;;;;5010449;28;19936;-70
2022/01/10 04:29:30;;;;;;;;;;;5.90;99.90;;;;;;5008680;28;19931;-70
2022/01/10 04:31:56;;;;;;;;;;;6.00;99.90;;;;;;5012192;28;20379;-70
2022/01/10 04:34:21;;;;;;;;;;;6.00;99.90;;;;;;5012055;28;19910;-70
2022/01/10 04:36:47;;;;;;;;;;;6.00;99.90;;;;;;5010424;28;19976;-70
2022/01/10 04:39:25;;;;;;;;;;;;;;;;;;;;;
2022/01/10 04:41:52;;;;;;;;;;;5.90;99.90;;;;;;5013720;28;19923;-71
2022/01/10 04:44:22;;;;;;;;;;;6.00;99.90;;;;;;5013688;28;19992;-70
2022/01/10 04:46:47;;;;;;;;;;;6.00;99.90;;;;;;5012604;28;19919;-70
2022/01/10 04:49:21;;;;;;;;;;;6.00;99.90;;;;;;5013008;28;20368;-70
2022/01/10 04:51:48;;;;;;;;;;;5.90;99.90;;;;;;5012607;28;19971;-70
2022/01/10 04:54:14;;;;;;;;;;;5.90;99.90;;;;;;5012931;28;19909;-71
2022/01/10 04:56:39;;;;;;;;;;;5.90;99.90;;;;;;5011087;28;20417;-69
2022/01/10 04:59:10;;;;;;;;;;;6.00;99.90;;;;;;5010722;28;19909;-72
2022/01/10 05:01:36;;;;;;;;;;;5.90;99.90;;;;;;5011907;28;19909;-70
2022/01/10 05:04:02;;;;;;;;;;;5.90;99.90;;;;;;5011251;28;20260;-70
2022/01/10 05:06:27;;;;;;;;;;;5.90;99.90;;;;;;5009008;28;19921;-70
2022/01/10 05:09:13;;;;;;;;;;;5.90;99.90;;;;;;5008779;28;19924;-72
2022/01/10 05:11:40;;;;;;;;;;;5.90;99.90;;;;;;5011750;28;20386;-68
2022/01/10 05:14:06;;;;;;;;;;;5.90;99.90;;;;;;5011113;28;19910;-71
2022/01/10 05:16:32;;;;;;;;;;;5.90;99.90;;;;;;5010876;28;19988;-70
2022/01/10 05:18:58;;;;;;;;;;;6.00;99.90;;;;;;5010506;28;19917;-71
2022/01/10 05:21:24;;;;;;;;;;;5.90;99.90;;;;;;5011738;28;19910;-69
2022/01/10 05:23:49;;;;;;;;;;;5.90;99.90;;;;;;5006878;28;19910;-71
2022/01/10 05:26:15;;;;;;;;;;;6.00;99.90;;;;;;5007875;28;19986;-69
2022/01/10 05:28:52;;;;;;;;;;;5.90;99.90;;;;;;5010083;28;19936;-72
2022/01/10 05:31:19;;;;;;;;;;;5.90;99.90;;;;;;5001597;28;20008;-72
2022/01/10 05:33:45;;;;;;;;;;;5.90;99.90;;;;;;5008205;28;19914;-70
2022/01/10 05:36:10;;;;;;;;;;;5.90;99.90;;;;;;5009636;28;19913;-70
2022/01/10 05:38:36;;;;;;;;;;;5.90;99.90;;;;;;5005752;28;20382;-70
2022/01/10 05:41:02;;;;;;;;;;;6.00;99.90;;;;;;5008909;28;19910;-71
2022/01/10 05:43:43;;;;;;;;;;;6.00;99.90;;;;;;5005163;28;20994;-71
2022/01/10 05:46:12;;;;;;;;;;;6.00;99.90;;;;;;5006051;28;19913;-71
2022/01/10 05:48:39;;;;;;;;;;;6.00;99.90;;;;;;5012359;28;19916;-69
2022/01/10 05:51:05;;;;;;;;;;;6.00;99.90;;;;;;5010646;28;19909;-69
2022/01/10 05:53:31;;;;;;;;;;;6.00;99.90;;;;;;5011674;28;19916;-70
2022/01/10 05:55:57;;;;;;;;;;;6.00;99.90;;;;;;5011544;28;20339;-70
2022/01/10 05:58:23;;;;;;;;;;;6.00;99.90;;;;;;5009604;28;20043;-69
2022/01/10 06:00:49;;;;;;;;;;;5.90;99.90;;;;;;5005990;28;19957;-70
2022/01/10 06:03:19;;;;;;;;;;;5.90;99.90;;;;;;5011323;28;20461;-71
2022/01/10 06:05:59;;;;;;;;;;;6.00;99.90;;;;;;5012693;28;19917;-70
2022/01/10 06:08:38;;;;;;;;;;;6.00;99.90;;;;;;5029724;28;19910;-73
2022/01/10 06:11:04;;;;;;;;;;;6.00;99.90;;;;;;5005770;28;20111;-71
2022/01/10 06:13:30;;;;;;;;;;;6.00;99.90;;;;;;5012956;28;20003;-70
2022/01/10 06:15:55;;;;;;;;;;;6.00;99.90;;;;;;5018750;28;19914;-70
2022/01/10 06:18:21;;;;;;;;;;;6.00;99.90;;;;;;5009834;28;19971;-72
2022/01/10 06:20:47;;;;;;;;;;;6.00;99.90;;;;;;5008762;28;19909;-71
2022/01/10 06:23:13;;;;;;;;;;;6.00;99.90;;;;;;5011789;28;19913;-70
2022/01/10 06:25:39;;;;;;;;;;;6.10;99.90;;;;;;5010433;28;20299;-70
2022/01/10 06:28:05;;;;;;;;;;;6.20;99.90;;;;;;5009023;28;20000;-70
2022/01/10 06:30:31;;;;;;;;;;;6.30;99.90;;;;;;5009897;28;20399;-70
2022/01/10 06:32:57;;;;;;;;;;;6.20;99.90;;;;;;5009625;28;19975;-70
2022/01/10 06:35:23;;;;;;;;;;;6.20;99.90;;;;;;5008886;28;19948;-71
2022/01/10 06:37:48;;;;;;;;;;;6.20;99.90;;;;;;5008737;28;19910;-73
2022/01/10 06:40:14;;;;;;;;;;;6.20;99.90;;;;;;5010599;28;19963;-70
2022/01/10 06:42:40;;;;;;;;;;;6.20;99.90;;;;;;5006764;28;19914;-70
2022/01/10 06:45:06;;;;;;;;;;;6.20;99.90;;;;;;5008374;28;20338;-70
2022/01/10 06:47:32;;;;;;;;;;;6.20;99.90;;;;;;5011544;28;19910;-70
2022/01/10 06:49:57;;;;;;;;;;;6.20;99.90;;;;;;5010948;28;19917;-71
2022/01/10 06:52:23;;;;;;;;;;;6.20;99.90;;;;;;5013334;28;19917;-71
2022/01/10 06:54:49;;;;;;;;;;;6.20;99.90;;;;;;5011645;28;19960;-69
2022/01/10 06:57:14;;;;;;;;;;;6.20;99.90;;;;;;5010112;28;20320;-70
2022/01/10 06:59:40;;;;;;;;;;;6.10;99.90;;;;;;5010382;28;20415;-70
2022/01/10 07:02:06;;;;;;;;;;;6.10;99.90;;;;;;5010229;28;20375;-70
2022/01/10 07:04:32;;;;;;;;;;;6.10;99.90;;;;;;5010053;28;19920;-70
2022/01/10 07:06:58;;;;;;;;;;;6.10;99.90;;;;;;5011002;28;19917;-71
2022/01/10 07:09:23;;;;;;;;;;;6.10;99.90;;;;;;5009631;28;19909;-70
2022/01/10 07:11:49;;;;;;;;;;;6.20;99.90;;;;;;5007022;28;19910;-70
2022/01/10 07:14:16;;;;;;;;;;;6.20;99.90;;;;;;5008830;28;19917;-71
2022/01/10 07:16:42;;;;;;;;;;;6.20;99.90;;;;;;5005599;28;20590;-70
2022/01/10 07:19:08;;;;;;;;;;;6.20;99.90;;;;;;5008637;28;19982;-71
2022/01/10 07:21:36;;;;;;;;;;;6.30;99.90;;;;;;5008488;28;19917;-70
2022/01/10 07:24:02;;;;;;;;;;;6.20;99.90;;;;;;5006875;28;19910;-71
2022/01/10 07:26:28;;;;;;;;;;;6.20;99.90;;;;;;5008031;28;20016;-72
2022/01/10 07:28:54;;;;;;;;;;;6.10;99.90;;;;;;5009193;28;19939;-70
2022/01/10 07:31:19;;;;;;;;;;;6.10;99.90;;;;;;5009128;28;20360;-70
2022/01/10 07:33:45;;;;;;;;;;;6.10;99.90;;;;;;5007188;28;20019;-71
2022/01/10 07:36:11;;;;;;;;;;;6.20;99.90;;;;;;5008079;28;19979;-72
2022/01/10 07:38:36;;;;;;;;;;;6.20;99.90;;;;;;5007222;28;19909;-70
2022/01/10 07:41:03;;;;;;;;;;;6.20;99.90;;;;;;5019140;28;19909;-72
2022/01/10 07:43:28;;;;;;;;;;;6.20;99.90;;;;;;5010170;28;20380;-72
2022/01/10 07:45:54;;;;;;;;;;;6.30;99.90;;;;;;5008442;28;19925;-71
2022/01/10 07:48:20;;;;;;;;;;;6.20;99.90;;;;;;5010103;28;20051;-71
2022/01/10 07:50:45;;;;;;;;;;;6.30;99.90;;;;;;5004002;28;20346;-71
2022/01/10 07:53:11;;;;;;;;;;;6.30;99.90;;;;;;5011839;28;19910;-67
2022/01/10 07:55:36;;;;;;;;;;;6.30;99.90;;;;;;5012746;28;19915;-67
2022/01/10 07:58:02;;;;;;;;;;;6.30;99.90;;;;;;5008674;28;19936;-69
2022/01/10 08:00:28;;;;;;;;;;;6.30;99.90;;;;;;5012348;28;19928;-69
2022/01/10 08:02:53;;;;;;;;;;;6.40;99.90;;;;;;5012608;28;19912;-66
2022/01/10 08:05:19;;;;;;;;;;;6.40;99.90;;;;;;5012384;28;20298;-69
2022/01/10 08:07:46;;;;;;;;;;;6.50;99.90;;;;;;5009511;28;19913;-68
2022/01/10 08:10:12;;;;;;;;;;;6.50;99.90;;;;;;5017088;28;20274;-69
2022/01/10 08:12:37;;;;;;;;;;;6.50;99.90;;;;;;5013736;28;20000;-69
2022/01/10 08:15:03;;;;;;;;;;;6.50;99.90;;;;;;5011695;28;19914;-68
2022/01/10 08:17:29;;;;;;;;;;;6.50;99.90;;;;;;5012064;28;20002;-70
2022/01/10 08:19:54;;;;;;;;;;;6.60;99.90;;;;;;5012767;28;20317;-69
2022/01/10 08:22:20;;;;;;;;;;;6.60;99.90;;;;;;5011002;28;19993;-70
2022/01/10 08:24:47;;;;;;;;;;;6.60;99.90;;;;;;5012257;28;19909;-72
2022/01/10 08:27:13;;;;;;;;;;;6.70;99.90;;;;;;5013032;28;19959;-70
2022/01/10 08:29:39;;;;;;;;;;;6.70;99.90;;;;;;5013868;28;19905;-69
2022/01/10 08:32:05;;;;;;;;;;;6.80;99.90;;;;;;5012306;28;19905;-69
2022/01/10 08:34:31;;;;;;;;;;;6.80;99.90;;;;;;5017697;28;19917;-70
2022/01/10 08:37:02;;;;;;;;;;;6.90;99.90;;;;;;5013526;28;19913;-70
2022/01/10 08:39:28;;;;;;;;;;;6.80;99.90;;;;;;5016209;28;20006;-70
2022/01/10 08:41:59;;;;;;;;;;;6.80;99.90;;;;;;5018106;28;19963;-69
2022/01/10 08:44:25;;;;;;;;;;;6.80;99.90;;;;;;5011657;28;19909;-69
2022/01/10 08:46:51;;;;;;;;;;;6.90;99.90;;;;;;5009036;28;19932;-68
2022/01/10 08:49:17;;;;;;;;;;;6.90;99.90;;;;;;5009641;28;20406;-68
2022/01/10 08:51:43;;;;;;;;;;;6.90;99.90;;;;;;5010770;28;20004;-69
2022/01/10 08:54:10;;;;;;;;;;;6.90;99.90;;;;;;5010216;28;19909;-68
2022/01/10 08:56:35;;;;;;;;;;;7.00;99.90;;;;;;5012347;28;20108;-68
2022/01/10 08:59:02;;;;;;;;;;;7.00;99.90;;;;;;5010519;28;20068;-68
2022/01/10 09:01:27;;;;;;;;;;;7.20;99.90;;;;;;5012651;28;20323;-70
2022/01/10 09:03:53;;;;;;;;;;;7.10;99.90;;;;;;5011245;28;19906;-69
2022/01/10 09:06:19;;;;;;;;;;;7.20;99.90;;;;;;5012180;28;19913;-68
2022/01/10 09:08:46;;;;;;;;;;;7.10;99.90;;;;;;5012896;28;19914;-70
2022/01/10 09:11:12;;;;;;;;;;;7.20;99.90;;;;;;5012776;28;19912;-69
2022/01/10 09:13:38;;;;;;;;;;;7.20;99.90;;;;;;5010011;28;19910;-69
2022/01/10 09:16:04;;;;;;;;;;;7.30;99.90;;;;;;5011407;28;19917;-69
2022/01/10 09:18:30;;;;;;;;;;;7.20;99.90;;;;;;5012257;28;19988;-70
2022/01/10 09:20:56;;;;;;;;;;;7.20;99.90;;;;;;5013114;28;19991;-68
2022/01/10 09:23:22;;;;;;;;;;;7.10;99.90;;;;;;5010389;28;19916;-69
2022/01/10 09:25:49;;;;;;;;;;;7.10;99.90;;;;;;5011887;28;19955;-70
2022/01/10 09:28:15;;;;;;;;;;;7.10;99.90;;;;;;5010401;28;19935;-68
2022/01/10 09:30:41;;;;;;;;;;;7.20;99.90;;;;;;5012122;28;19905;-70
2022/01/10 09:33:07;;;;;;;;;;;7.20;99.90;;;;;;5009731;28;19916;-68
2022/01/10 09:35:33;;;;;;;;;;;7.20;99.90;;;;;;5012014;28;20356;-70
2022/01/10 09:37:58;;;;;;;;;;;7.30;99.90;;;;;;5010413;28;19925;-70
2022/01/10 09:40:24;;;;;;;;;;;7.30;99.90;;;;;;5022954;28;19915;-68
2022/01/10 09:42:50;;;;;;;;;;;7.20;99.90;;;;;;5013431;28;19909;-70
2022/01/10 09:45:16;;;;;;;;;;;7.30;99.90;;;;;;5013452;28;19910;-69
2022/01/10 09:47:42;;;;;;;;;;;7.40;99.90;;;;;;5009898;28;19916;-69
2022/01/10 09:50:08;;;;;;;;;;;7.50;99.90;;;;;;5007694;28;19913;-69
2022/01/10 09:52:35;;;;;;;;;;;7.50;99.90;;;;;;5010365;28;20447;-68
2022/01/10 09:55:01;;;;;;;;;;;7.50;99.90;;;;;;5009683;28;20017;-68
2022/01/10 09:57:26;;;;;;;;;;;7.60;99.90;;;;;;5009938;28;20446;-69
2022/01/10 09:59:52;;;;;;;;;;;7.70;99.90;;;;;;5011243;28;19964;-69
2022/01/10 10:02:17;;;;;;;;;;;7.60;99.90;;;;;;5009374;28;19952;-69
2022/01/10 10:04:43;;;;;;;;;;;7.50;99.90;;;;;;5009115;28;20607;-69
2022/01/10 10:07:09;;;;;;;;;;;7.50;99.90;;;;;;5012566;28;20051;-68
2022/01/10 10:09:35;;;;;;;;;;;7.60;99.90;;;;;;5020680;28;19913;-68
2022/01/10 10:12:02;;;;;;;;;;;7.70;99.90;;;;;;5010233;28;19997;-69
2022/01/10 10:14:27;;;;;;;;;;;7.80;99.90;;;;;;5011910;28;19917;-67
2022/01/10 10:16:55;;;;;;;;;;;7.90;99.90;;;;;;5011897;28;19924;-70
2022/01/10 10:19:23;;;;;;;;;;;8.00;99.90;;;;;;5011735;28;20286;-68
2022/01/10 10:21:50;;;;;;;;;;;8.10;99.90;;;;;;5010863;28;20007;-66
2022/01/10 10:24:16;;;;;;;;;;;8.10;99.90;;;;;;5013570;28;19906;-68
2022/01/10 10:26:42;;;;;;;;;;;8.10;99.90;;;;;;5009154;28;19951;-67
2022/01/10 10:29:09;;;;;;;;;;;8.10;99.90;;;;;;5005592;28;19956;-68
2022/01/10 10:31:37;;;;;;;;;;;8.30;99.90;;;;;;5010383;28;20278;-68
2022/01/10 10:34:04;;;;;;;;;;;8.20;99.90;;;;;;5011194;28;19905;-69
2022/01/10 10:36:31;;;;;;;;;;;8.30;99.90;;;;;;5006434;28;19921;-66
2022/01/10 10:38:58;;;;;;;;;;;8.40;99.90;;;;;;5007254;28;19948;-67
2022/01/10 10:41:24;;;;;;;;;;;8.30;99.90;;;;;;5008360;28;20312;-67
2022/01/10 10:43:54;;;;;;;;;;;8.30;99.90;;;;;;5005222;28;19917;-67
2022/01/10 10:46:24;;;;;;;;;;;8.40;99.90;;;;;;5008657;28;20024;-68
2022/01/10 10:48:52;;;;;;;;;;;8.50;99.90;;;;;;5001095;28;20291;-69
2022/01/10 10:51:18;;;;;;;;;;;8.70;99.90;;;;;;5005669;28;20007;-66
2022/01/10 10:53:43;;;;;;;;;;;8.60;99.90;;;;;;5008747;28;20451;-69
2022/01/10 10:56:09;;;;;;;;;;;8.60;99.90;;;;;;5009213;28;20310;-68
2022/01/10 10:58:35;;;;;;;;;;;8.60;99.90;;;;;;5000930;28;19955;-69
2022/01/10 11:01:01;;;;;;;;;;;8.60;99.90;;;;;;5002807;28;19916;-68
2022/01/10 11:03:27;;;;;;;;;;;8.70;99.90;;;;;;4998333;28;19909;-69
2022/01/10 11:05:57;;;;;;;;;;;8.70;99.90;;;;;;5010240;28;19910;-68
2022/01/10 11:08:25;;;;;;;;;;;8.70;99.90;;;;;;5009963;28;20330;-66
2022/01/10 11:10:50;;;;;;;;;;;8.90;99.90;;;;;;5008606;28;19914;-67
2022/01/10 11:13:17;;;;;;;;;;;8.80;99.90;;;;;;5009219;28;20436;-70
2022/01/10 11:15:43;;;;;;;;;;;8.80;99.90;;;;;;5009042;28;19913;-69
2022/01/10 11:18:09;;;;;;;;;;;8.90;99.90;;;;;;5010772;28;19984;-70
2022/01/10 11:20:40;;;;;;;;;;;8.80;99.90;;;;;;5007360;28;19913;-67
2022/01/10 11:23:06;;;;;;;;;;;8.80;99.90;;;;;;5006233;28;19916;-68
2022/01/10 11:25:34;;;;;;;;;;;8.80;99.90;;;;;;5010712;28;19909;-69
2022/01/10 11:28:06;;;;;;;;;;;8.70;99.90;;;;;;5016141;28;19909;-67
2022/01/10 11:30:45;;;;;;;;;;;8.80;99.90;;;;;;5012962;28;19917;-67
2022/01/10 11:33:13;;;;;;;;;;;8.90;99.90;;;;;;5022281;28;20361;-70
2022/01/10 11:35:42;;;;;;;;;;;8.90;99.90;;;;;;5010877;28;19955;-68
2022/01/10 11:38:23;;;;;;;;;;;8.80;99.90;;;;;;5014678;28;20367;-69
2022/01/10 11:40:57;;;;;;;;;;;8.80;99.90;;;;;;5012248;28;20356;-69
2022/01/10 11:43:42;;;;;;;;;;;8.70;99.90;;;;;;5009555;28;19941;-68
2022/01/10 11:46:28;;;;;;;;;;;8.80;99.90;;;;;;5009341;28;19917;-68
2022/01/10 11:49:00;;;;;;;;;;;8.80;99.90;;;;;;5005657;28;19979;-69
2022/01/10 11:51:28;;;;;;;;;;;8.90;99.90;;;;;;5013380;28;20367;-69
2022/01/10 11:53:59;;;;;;;;;;;8.90;99.90;;;;;;5014042;28;19913;-70
2022/01/10 11:56:32;;;;;;;;;;;9.00;99.90;;;;;;5017313;28;19969;-67
2022/01/10 11:59:10;;;;;;;;;;;9.00;99.90;;;;;;5013230;28;19984;-68
2022/01/10 12:01:38;;;;;;;;;;;9.00;99.90;;;;;;5013398;28;19905;-68
2022/01/10 12:04:03;;;;;;;;;;;9.10;99.90;;;;;;5013165;28;19909;-69
2022/01/10 12:06:29;;;;;;;;;;;9.00;99.90;;;;;;5012440;28;19909;-69
2022/01/10 12:08:55;;;;;;;;;;;8.90;99.90;;;;;;5007288;28;20398;-68
2022/01/10 12:11:23;;;;;;;;;;;9.00;99.90;;;;;;5013935;28;19910;-69
2022/01/10 12:13:51;;;;;;;;;;;9.00;99.90;;;;;;5009912;28;19915;-69
2022/01/10 12:16:17;;;;;;;;;;;9.00;99.90;;;;;;5012050;28;19914;-67
2022/01/10 12:18:42;;;;;;;;;;;8.90;99.90;;;;;;5013142;28;19913;-68
2022/01/10 12:21:08;;;;;;;;;;;8.90;99.90;;;;;;5007544;28;20335;-68
2022/01/10 12:23:33;;;;;;;;;;;9.00;99.90;;;;;;5013172;28;19906;-69
2022/01/10 12:25:59;;;;;;;;;;;8.90;99.90;;;;;;5012399;28;19924;-65
2022/01/10 12:28:27;;;;;;;;;;;8.80;99.90;;;;;;5011024;28;20002;-68
2022/01/10 12:30:53;;;;;;;;;;;8.80;99.90;;;;;;5011879;28;19905;-68
2022/01/10 12:33:18;;;;;;;;;;;8.90;99.90;;;;;;5008745;28;20284;-68
2022/01/10 12:35:44;;;;;;;;;;;9.00;99.90;;;;;;5012891;28;19955;-69
2022/01/10 12:38:10;;;;;;;;;;;9.00;99.90;;;;;;5011178;28;19910;-68
2022/01/10 12:40:35;;;;;;;;;;;8.90;99.90;;;;;;5011283;28;20398;-66
2022/01/10 12:43:01;;;;;;;;;;;9.00;99.90;;;;;;5012198;28;20033;-69
2022/01/10 12:45:34;;;;;;;;;;;9.10;99.90;;;;;;5009970;28;20398;-69
2022/01/10 12:47:59;;;;;;;;;;;9.20;99.90;;;;;;5012455;28;20000;-68
2022/01/10 12:50:25;;;;;;;;;;;9.30;99.90;;;;;;5012722;28;20040;-68
2022/01/10 12:52:53;;;;;;;;;;;9.40;99.90;;;;;;5013910;28;19928;-68
2022/01/10 12:55:19;;;;;;;;;;;9.30;99.90;;;;;;5010398;28;19916;-69
2022/01/10 12:57:47;;;;;;;;;;;9.30;99.90;;;;;;5005904;28;19996;-66
2022/01/10 13:00:12;;;;;;;;;;;9.10;99.90;;;;;;5025831;28;19905;-68
2022/01/10 13:02:38;;;;;;;;;;;9.10;99.90;;;;;;5012323;28;20394;-68
2022/01/10 13:05:05;;;;;;;;;;;9.10;99.90;;;;;;5011060;28;20303;-69
2022/01/10 13:07:31;;;;;;;;;;;9.10;99.90;;;;;;5014823;28;19925;-67
2022/01/10 13:09:59;;;;;;;;;;;9.20;99.90;;;;;;5011130;28;20054;-68
2022/01/10 13:12:28;;;;;;;;;;;9.30;99.90;;;;;;5013520;28;20093;-67
2022/01/10 13:15:02;;;;;;;;;;;9.40;99.90;;;;;;5010199;28;19913;-68
2022/01/10 13:17:28;;;;;;;;;;;9.30;99.90;;;;;;5027757;28;19917;-68
2022/01/10 13:20:00;;;;;;;;;;;9.30;99.90;;;;;;5012561;28;20054;-66
2022/01/10 13:22:30;;;;;;;;;;;9.40;99.90;;;;;;5010616;28;20342;-68
2022/01/10 13:24:58;;;;;;;;;;;9.40;99.90;;;;;;5011698;28;19969;-69
2022/01/10 13:27:31;;;;;;;;;;;9.40;99.90;;;;;;5011363;28;19910;-68
2022/01/10 13:29:58;;;;;;;;;;;9.40;99.90;;;;;;5010629;28;19905;-71
2022/01/10 13:32:30;;;;;;;;;;;9.40;99.90;;;;;;5006865;28;19909;-68
2022/01/10 13:35:02;;;;;;;;;;;9.20;99.90;;;;;;5010780;28;19905;-67
2022/01/10 13:37:39;;;;;;;;;;;9.20;99.90;;;;;;5010060;28;20432;-67
2022/01/10 13:40:12;;;;;;;;;;;9.20;99.90;;;;;;5010236;28;19961;-66
2022/01/10 13:42:40;;;;;;;;;;;9.20;99.90;;;;;;5010905;28;19909;-68
2022/01/10 13:45:06;;;;;;;;;;;9.30;99.90;;;;;;5010950;28;20013;-68
2022/01/10 13:47:51;;;;;;;;;;;9.30;99.90;;;;;;5011785;28;19917;-68
2022/01/10 13:50:18;;;;;;;;;;;9.30;99.90;;;;;;5006712;28;19955;-69
2022/01/10 13:53:04;;;;;;;;;;;9.10;99.90;;;;;;5027226;28;20330;-67
2022/01/10 13:55:30;;;;;;;;;;;9.10;99.90;;;;;;5015723;28;19952;-69
2022/01/10 13:57:57;;;;;;;;;;;9.10;99.90;;;;;;5011402;28;19921;-68
2022/01/10 14:00:23;;;;;;;;;;;9.00;99.90;;;;;;5009974;28;20290;-68
2022/01/10 14:02:50;;;;;;;;;;;9.00;99.90;;;;;;5018700;28;20351;-68
2022/01/10 14:05:26;;;;;;;;;;;9.00;99.90;;;;;;5011028;28;19916;-67
2022/01/10 14:07:52;;;;;;;;;;;9.00;99.90;;;;;;5010420;28;19909;-70
2022/01/10 14:10:18;;;;;;;;;;;9.00;99.90;;;;;;5011531;28;19905;-69
2022/01/10 14:12:44;;;;;;;;;;;9.10;99.90;;;;;;5011436;28;20359;-68
2022/01/10 14:15:10;;;;;;;;;;;9.00;99.90;;;;;;5013975;28;19913;-68
2022/01/10 14:17:36;;;;;;;;;;;9.00;99.90;;;;;;5009113;28;19909;-69
2022/01/10 14:20:03;;;;;;;;;;;9.00;99.90;;;;;;5015919;28;19905;-69
2022/01/10 14:22:29;;;;;;;;;;;9.00;99.90;;;;;;5017573;28;20274;-69
2022/01/10 14:24:55;;;;;;;;;;;9.00;99.90;;;;;;5011677;28;19913;-68
2022/01/10 14:27:20;;;;;;;;;;;9.00;99.90;;;;;;5008617;28;19949;-69
2022/01/10 14:29:46;;;;;;;;;;;9.00;99.90;;;;;;5012475;28;19916;-69
2022/01/10 14:32:13;;;;;;;;;;;9.00;99.90;;;;;;5012459;28;19906;-71
2022/01/10 14:34:39;;;;;;;;;;;9.00;99.90;;;;;;5012938;28;19905;-69
2022/01/10 14:37:05;;;;;;;;;;;9.00;99.90;;;;;;5020857;28;19928;-70
2022/01/10 14:39:31;;;;;;;;;;;8.90;99.90;;;;;;5007214;28;19909;-70